sensor_id;sensor_type;location;lat;lon;timestamp;temperature;humidity
20463;DHT22;10390;53.566;9.980;2023-04-03T00:01:07;23.20;1.00
20463;DHT22;10390;53.566;9.980;2023-04-03T00:03:33;23.20;1.00
20463;DHT22;10390;53.566;9.980;2023-04-03T00:06:00;23.20;1.00
20463;DHT22;10390;53.566;9.980;2023-04-03T00:08:25;23.20;1.00
20463;DHT22;10390;53.566;9.980;2023-04-03T00:10:51;23.20;1.00
20463;DHT22;10390;53.566;9.980;2023-04-03T00:13:17;23.20;1.00
20463;DHT22;10390;53.566;9.980;2023-04-03T00:15:43;23.20;1.00
20463;DHT22;10390;53.566;9.980;2023-04-03T00:18:09;23.20;1.00
20463;DHT22;10390;53.566;9.980;2023-04-03T00:20:35;23.20;1.00
20463;DHT22;10390;53.566;9.980;2023-04-03T00:23:01;23.20;1.00
20463;DHT22;10390;53.566;9.980;2023-04-03T00:25:27;23.20;1.00
20463;DHT22;10390;53.566;9.980;2023-04-03T00:27:53;23.20;1.00
20463;DHT22;10390;53.566;9.980;2023-04-03T00:30:21;23.30;1.00
20463;DHT22;10390;53.566;9.980;2023-04-03T00:32:51;23.20;1.00
20463;DHT22;10390;53.566;9.980;2023-04-03T00:35:19;23.20;1.00
20463;DHT22;10390;53.566;9.980;2023-04-03T00:37:45;23.20;1.00
20463;DHT22;10390;53.566;9.980;2023-04-03T00:40:13;23.20;1.00
20463;DHT22;10390;53.566;9.980;2023-04-03T00:42:41;23.20;1.00
20463;DHT22;10390;53.566;9.980;2023-04-03T00:47:36;23.30;1.00
20463;DHT22;10390;53.566;9.980;2023-04-03T00:50:02;23.30;1.00
20463;DHT22;10390;53.566;9.980;2023-04-03T00:52:29;23.20;1.00
20463;DHT22;10390;53.566;9.980;2023-04-03T00:55:00;23.20;1.00
20463;DHT22;10390;53.566;9.980;2023-04-03T00:57:27;23.20;1.00
20463;DHT22;10390;53.566;9.980;2023-04-03T00:59:59;23.20;1.00
20463;DHT22;10390;53.566;9.980;2023-04-03T01:02:27;23.20;1.00
20463;DHT22;10390;53.566;9.980;2023-04-03T01:04:52;23.20;1.00
20463;DHT22;10390;53.566;9.980;2023-04-03T01:07:29;23.20;1.00
20463;DHT22;10390;53.566;9.980;2023-04-03T01:10:00;23.20;1.00
20463;DHT22;10390;53.566;9.980;2023-04-03T01:12:30;23.20;1.00
20463;DHT22;10390;53.566;9.980;2023-04-03T01:15:00;23.10;1.00
20463;DHT22;10390;53.566;9.980;2023-04-03T01:25:45;23.00;1.00
20463;DHT22;10390;53.566;9.980;2023-04-03T01:28:14;23.10;1.00
20463;DHT22;10390;53.566;9.980;2023-04-03T01:31:06;23.00;1.00
20463;DHT22;10390;53.566;9.980;2023-04-03T01:33:34;23.00;1.00
20463;DHT22;10390;53.566;9.980;2023-04-03T01:36:00;23.10;1.00
20463;DHT22;10390;53.566;9.980;2023-04-03T01:38:26;23.10;1.00
20463;DHT22;10390;53.566;9.980;2023-04-03T01:40:52;23.10;1.00
20463;DHT22;10390;53.566;9.980;2023-04-03T01:43:17;23.10;1.00
20463;DHT22;10390;53.566;9.980;2023-04-03T01:45:43;23.10;1.00
20463;DHT22;10390;53.566;9.980;2023-04-03T01:48:09;23.10;1.00
20463;DHT22;10390;53.566;9.980;2023-04-03T01:50:35;23.10;1.00
20463;DHT22;10390;53.566;9.980;2023-04-03T01:53:00;23.10;1.00
20463;DHT22;10390;53.566;9.980;2023-04-03T01:55:26;23.10;1.00
20463;DHT22;10390;53.566;9.980;2023-04-03T01:57:51;23.10;1.00
20463;DHT22;10390;53.566;9.980;2023-04-03T02:00:17;23.10;1.00
20463;DHT22;10390;53.566;9.980;2023-04-03T02:02:43;23.10;1.00
20463;DHT22;10390;53.566;9.980;2023-04-03T02:05:08;23.10;1.00
20463;DHT22;10390;53.566;9.980;2023-04-03T02:07:34;23.10;1.00
20463;DHT22;10390;53.566;9.980;2023-04-03T02:10:00;23.10;1.00
20463;DHT22;10390;53.566;9.980;2023-04-03T02:12:26;23.10;1.00
20463;DHT22;10390;53.566;9.980;2023-04-03T02:14:51;23.20;1.00
20463;DHT22;10390;53.566;9.980;2023-04-03T02:17:17;23.20;1.00
20463;DHT22;10390;53.566;9.980;2023-04-03T02:19:43;23.10;1.00
20463;DHT22;10390;53.566;9.980;2023-04-03T02:22:08;23.10;1.00
20463;DHT22;10390;53.566;9.980;2023-04-03T02:24:34;23.10;1.00
20463;DHT22;10390;53.566;9.980;2023-04-03T02:27:00;23.10;1.00
20463;DHT22;10390;53.566;9.980;2023-04-03T02:29:25;23.10;1.00
20463;DHT22;10390;53.566;9.980;2023-04-03T02:31:51;23.10;1.00
20463;DHT22;10390;53.566;9.980;2023-04-03T02:34:17;23.10;1.00
20463;DHT22;10390;53.566;9.980;2023-04-03T02:36:43;23.10;1.00
20463;DHT22;10390;53.566;9.980;2023-04-03T02:39:08;23.00;1.00
20463;DHT22;10390;53.566;9.980;2023-04-03T02:41:34;23.00;1.00
20463;DHT22;10390;53.566;9.980;2023-04-03T02:44:04;23.00;1.00
20463;DHT22;10390;53.566;9.980;2023-04-03T02:46:30;23.00;1.00
20463;DHT22;10390;53.566;9.980;2023-04-03T02:48:56;23.00;1.00
20463;DHT22;10390;53.566;9.980;2023-04-03T02:51:22;22.90;1.00
20463;DHT22;10390;53.566;9.980;2023-04-03T02:53:49;22.90;1.00
20463;DHT22;10390;53.566;9.980;2023-04-03T02:56:15;23.00;1.00
20463;DHT22;10390;53.566;9.980;2023-04-03T02:58:41;23.00;1.00
20463;DHT22;10390;53.566;9.980;2023-04-03T03:01:06;23.00;1.00
20463;DHT22;10390;53.566;9.980;2023-04-03T03:03:32;23.00;1.00
20463;DHT22;10390;53.566;9.980;2023-04-03T03:06:05;23.00;1.00
20463;DHT22;10390;53.566;9.980;2023-04-03T03:08:32;23.00;1.00
20463;DHT22;10390;53.566;9.980;2023-04-03T03:10:57;23.00;1.00
20463;DHT22;10390;53.566;9.980;2023-04-03T03:13:23;23.00;1.00
20463;DHT22;10390;53.566;9.980;2023-04-03T03:15:49;23.00;1.00
20463;DHT22;10390;53.566;9.980;2023-04-03T03:18:14;23.00;1.00
20463;DHT22;10390;53.566;9.980;2023-04-03T03:20:40;23.00;1.00
20463;DHT22;10390;53.566;9.980;2023-04-03T03:23:06;23.00;1.00
20463;DHT22;10390;53.566;9.980;2023-04-03T03:25:31;23.00;1.00
20463;DHT22;10390;53.566;9.980;2023-04-03T03:27:57;23.00;1.00
20463;DHT22;10390;53.566;9.980;2023-04-03T03:30:23;23.00;1.00
20463;DHT22;10390;53.566;9.980;2023-04-03T03:32:48;23.00;1.00
20463;DHT22;10390;53.566;9.980;2023-04-03T03:35:14;23.00;1.00
20463;DHT22;10390;53.566;9.980;2023-04-03T03:37:40;23.00;1.00
20463;DHT22;10390;53.566;9.980;2023-04-03T03:40:06;23.00;1.00
20463;DHT22;10390;53.566;9.980;2023-04-03T03:42:32;23.00;1.00
20463;DHT22;10390;53.566;9.980;2023-04-03T03:44:57;23.10;1.00
20463;DHT22;10390;53.566;9.980;2023-04-03T03:47:23;23.10;1.00
20463;DHT22;10390;53.566;9.980;2023-04-03T03:49:48;23.00;1.00
20463;DHT22;10390;53.566;9.980;2023-04-03T03:52:14;23.00;1.00
20463;DHT22;10390;53.566;9.980;2023-04-03T03:54:40;23.00;1.00
20463;DHT22;10390;53.566;9.980;2023-04-03T03:57:05;23.00;1.00
20463;DHT22;10390;53.566;9.980;2023-04-03T03:59:31;23.00;1.00
20463;DHT22;10390;53.566;9.980;2023-04-03T04:01:57;23.00;1.00
20463;DHT22;10390;53.566;9.980;2023-04-03T04:04:22;23.00;1.00
20463;DHT22;10390;53.566;9.980;2023-04-03T04:06:48;23.00;1.00
20463;DHT22;10390;53.566;9.980;2023-04-03T04:09:13;22.90;1.00
20463;DHT22;10390;53.566;9.980;2023-04-03T04:11:39;22.90;1.00
20463;DHT22;10390;53.566;9.980;2023-04-03T04:14:06;22.90;1.00
20463;DHT22;10390;53.566;9.980;2023-04-03T04:16:32;22.90;1.00
20463;DHT22;10390;53.566;9.980;2023-04-03T04:18:57;22.90;1.00
20463;DHT22;10390;53.566;9.980;2023-04-03T04:21:23;22.90;1.00
20463;DHT22;10390;53.566;9.980;2023-04-03T04:23:49;22.90;1.00
20463;DHT22;10390;53.566;9.980;2023-04-03T04:26:15;22.90;1.00
20463;DHT22;10390;53.566;9.980;2023-04-03T04:28:40;22.90;1.00
20463;DHT22;10390;53.566;9.980;2023-04-03T04:31:06;22.90;1.00
20463;DHT22;10390;53.566;9.980;2023-04-03T04:33:32;22.90;1.00
20463;DHT22;10390;53.566;9.980;2023-04-03T04:35:57;22.90;1.00
20463;DHT22;10390;53.566;9.980;2023-04-03T04:38:23;22.90;1.00
20463;DHT22;10390;53.566;9.980;2023-04-03T04:40:48;22.90;1.00
20463;DHT22;10390;53.566;9.980;2023-04-03T04:43:14;22.90;1.00
20463;DHT22;10390;53.566;9.980;2023-04-03T04:45:41;22.90;1.00
20463;DHT22;10390;53.566;9.980;2023-04-03T04:48:07;22.90;1.00
20463;DHT22;10390;53.566;9.980;2023-04-03T04:50:33;22.90;1.00
20463;DHT22;10390;53.566;9.980;2023-04-03T04:52:58;22.90;1.00
20463;DHT22;10390;53.566;9.980;2023-04-03T04:55:24;23.00;1.00
20463;DHT22;10390;53.566;9.980;2023-04-03T04:57:49;22.90;1.00
20463;DHT22;10390;53.566;9.980;2023-04-03T05:00:16;23.00;1.00
20463;DHT22;10390;53.566;9.980;2023-04-03T05:02:41;23.00;1.00
20463;DHT22;10390;53.566;9.980;2023-04-03T05:05:07;22.90;1.00
20463;DHT22;10390;53.566;9.980;2023-04-03T05:07:33;23.00;1.00
20463;DHT22;10390;53.566;9.980;2023-04-03T05:10:01;23.00;1.00
20463;DHT22;10390;53.566;9.980;2023-04-03T05:12:28;23.00;1.00
20463;DHT22;10390;53.566;9.980;2023-04-03T05:14:53;23.00;1.00
20463;DHT22;10390;53.566;9.980;2023-04-03T05:17:19;23.00;1.00
20463;DHT22;10390;53.566;9.980;2023-04-03T05:19:45;23.00;1.00
20463;DHT22;10390;53.566;9.980;2023-04-03T05:22:11;23.00;1.00
20463;DHT22;10390;53.566;9.980;2023-04-03T05:24:37;23.00;1.00
20463;DHT22;10390;53.566;9.980;2023-04-03T05:27:02;23.00;1.00
20463;DHT22;10390;53.566;9.980;2023-04-03T05:29:28;23.00;1.00
20463;DHT22;10390;53.566;9.980;2023-04-03T05:31:54;23.00;1.00
20463;DHT22;10390;53.566;9.980;2023-04-03T05:34:19;23.00;1.00
20463;DHT22;10390;53.566;9.980;2023-04-03T05:36:45;23.00;1.00
20463;DHT22;10390;53.566;9.980;2023-04-03T05:39:11;22.90;1.00
20463;DHT22;10390;53.566;9.980;2023-04-03T05:41:37;22.90;1.00
20463;DHT22;10390;53.566;9.980;2023-04-03T05:44:02;22.90;1.00
20463;DHT22;10390;53.566;9.980;2023-04-03T05:46:28;22.90;1.00
20463;DHT22;10390;53.566;9.980;2023-04-03T05:48:53;22.90;1.00
20463;DHT22;10390;53.566;9.980;2023-04-03T05:51:24;22.90;1.00
20463;DHT22;10390;53.566;9.980;2023-04-03T05:53:56;23.00;1.00
20463;DHT22;10390;53.566;9.980;2023-04-03T05:56:25;23.00;1.00
20463;DHT22;10390;53.566;9.980;2023-04-03T05:58:50;23.00;1.00
20463;DHT22;10390;53.566;9.980;2023-04-03T06:01:16;23.00;1.00
20463;DHT22;10390;53.566;9.980;2023-04-03T06:03:42;23.00;1.00
20463;DHT22;10390;53.566;9.980;2023-04-03T06:06:08;23.10;1.00
20463;DHT22;10390;53.566;9.980;2023-04-03T06:08:33;23.10;1.00
20463;DHT22;10390;53.566;9.980;2023-04-03T06:11:00;23.20;1.00
20463;DHT22;10390;53.566;9.980;2023-04-03T06:13:27;23.20;1.00
20463;DHT22;10390;53.566;9.980;2023-04-03T06:15:53;23.20;1.00
20463;DHT22;10390;53.566;9.980;2023-04-03T06:18:19;23.30;1.00
20463;DHT22;10390;53.566;9.980;2023-04-03T06:20:45;23.30;1.00
20463;DHT22;10390;53.566;9.980;2023-04-03T06:23:11;23.30;1.00
20463;DHT22;10390;53.566;9.980;2023-04-03T06:25:37;23.30;1.00
20463;DHT22;10390;53.566;9.980;2023-04-03T06:28:02;23.40;1.00
20463;DHT22;10390;53.566;9.980;2023-04-03T06:30:28;23.40;1.00
20463;DHT22;10390;53.566;9.980;2023-04-03T06:32:54;23.40;1.00
20463;DHT22;10390;53.566;9.980;2023-04-03T06:35:20;23.40;1.00
20463;DHT22;10390;53.566;9.980;2023-04-03T06:37:49;23.50;1.00
20463;DHT22;10390;53.566;9.980;2023-04-03T06:40:21;23.50;1.00
20463;DHT22;10390;53.566;9.980;2023-04-03T06:42:48;23.60;1.00
20463;DHT22;10390;53.566;9.980;2023-04-03T06:45:13;23.60;1.00
20463;DHT22;10390;53.566;9.980;2023-04-03T06:47:39;23.60;1.00
20463;DHT22;10390;53.566;9.980;2023-04-03T06:50:05;23.70;1.00
20463;DHT22;10390;53.566;9.980;2023-04-03T06:52:31;23.70;1.00
20463;DHT22;10390;53.566;9.980;2023-04-03T06:54:57;23.70;1.00
20463;DHT22;10390;53.566;9.980;2023-04-03T06:57:25;23.70;1.00
20463;DHT22;10390;53.566;9.980;2023-04-03T06:59:50;23.70;1.00
20463;DHT22;10390;53.566;9.980;2023-04-03T07:02:16;23.80;1.00
20463;DHT22;10390;53.566;9.980;2023-04-03T07:04:42;23.80;1.00
20463;DHT22;10390;53.566;9.980;2023-04-03T07:07:07;23.80;1.00
20463;DHT22;10390;53.566;9.980;2023-04-03T07:09:33;23.80;1.00
20463;DHT22;10390;53.566;9.980;2023-04-03T07:11:59;23.80;1.00
20463;DHT22;10390;53.566;9.980;2023-04-03T07:14:25;23.80;1.00
20463;DHT22;10390;53.566;9.980;2023-04-03T07:16:51;23.80;1.00
20463;DHT22;10390;53.566;9.980;2023-04-03T07:19:16;23.90;1.00
20463;DHT22;10390;53.566;9.980;2023-04-03T07:21:44;23.90;1.00
20463;DHT22;10390;53.566;9.980;2023-04-03T07:24:10;23.90;1.00
20463;DHT22;10390;53.566;9.980;2023-04-03T07:26:36;23.90;1.00
20463;DHT22;10390;53.566;9.980;2023-04-03T07:29:02;24.00;1.00
20463;DHT22;10390;53.566;9.980;2023-04-03T07:31:28;24.00;1.00
20463;DHT22;10390;53.566;9.980;2023-04-03T07:33:53;24.00;1.00
20463;DHT22;10390;53.566;9.980;2023-04-03T07:36:21;24.00;1.00
20463;DHT22;10390;53.566;9.980;2023-04-03T07:38:47;24.00;1.00
20463;DHT22;10390;53.566;9.980;2023-04-03T07:41:17;24.00;1.00
20463;DHT22;10390;53.566;9.980;2023-04-03T07:43:44;24.00;1.00
20463;DHT22;10390;53.566;9.980;2023-04-03T07:46:10;24.00;1.00
20463;DHT22;10390;53.566;9.980;2023-04-03T07:48:36;24.10;1.00
20463;DHT22;10390;53.566;9.980;2023-04-03T07:51:03;24.10;1.00
20463;DHT22;10390;53.566;9.980;2023-04-03T07:53:30;24.10;1.00
20463;DHT22;10390;53.566;9.980;2023-04-03T07:55:57;24.10;1.00
20463;DHT22;10390;53.566;9.980;2023-04-03T07:58:23;24.10;1.00
20463;DHT22;10390;53.566;9.980;2023-04-03T08:00:49;24.10;1.00
20463;DHT22;10390;53.566;9.980;2023-04-03T08:03:16;24.10;1.00
20463;DHT22;10390;53.566;9.980;2023-04-03T08:05:46;24.20;1.00
20463;DHT22;10390;53.566;9.980;2023-04-03T08:08:14;24.20;1.00
20463;DHT22;10390;53.566;9.980;2023-04-03T08:10:40;24.20;1.00
20463;DHT22;10390;53.566;9.980;2023-04-03T08:13:06;24.20;1.00
20463;DHT22;10390;53.566;9.980;2023-04-03T08:15:33;24.20;1.00
20463;DHT22;10390;53.566;9.980;2023-04-03T08:17:59;24.20;1.00
20463;DHT22;10390;53.566;9.980;2023-04-03T08:20:26;24.30;1.00
20463;DHT22;10390;53.566;9.980;2023-04-03T08:22:52;24.30;1.00
20463;DHT22;10390;53.566;9.980;2023-04-03T08:25:18;24.30;1.00
20463;DHT22;10390;53.566;9.980;2023-04-03T08:27:44;24.40;1.00
20463;DHT22;10390;53.566;9.980;2023-04-03T08:30:11;24.30;1.00
20463;DHT22;10390;53.566;9.980;2023-04-03T08:32:43;24.30;1.00
20463;DHT22;10390;53.566;9.980;2023-04-03T08:35:09;24.40;1.00
20463;DHT22;10390;53.566;9.980;2023-04-03T08:37:36;24.50;1.00
20463;DHT22;10390;53.566;9.980;2023-04-03T08:40:04;24.40;1.00
20463;DHT22;10390;53.566;9.980;2023-04-03T08:45:45;24.50;1.00
20463;DHT22;10390;53.566;9.980;2023-04-03T08:48:19;24.50;1.00
20463;DHT22;10390;53.566;9.980;2023-04-03T08:50:53;24.50;1.00
20463;DHT22;10390;53.566;9.980;2023-04-03T08:53:22;24.50;1.00
20463;DHT22;10390;53.566;9.980;2023-04-03T08:55:51;24.50;1.00
20463;DHT22;10390;53.566;9.980;2023-04-03T08:58:24;24.60;1.00
20463;DHT22;10390;53.566;9.980;2023-04-03T09:01:02;24.60;1.00
20463;DHT22;10390;53.566;9.980;2023-04-03T09:03:38;24.60;1.00
20463;DHT22;10390;53.566;9.980;2023-04-03T09:06:25;24.60;1.00
20463;DHT22;10390;53.566;9.980;2023-04-03T09:09:15;24.60;1.00
20463;DHT22;10390;53.566;9.980;2023-04-03T09:14:33;24.60;1.00
20463;DHT22;10390;53.566;9.980;2023-04-03T09:22:42;24.70;1.00
20463;DHT22;10390;53.566;9.980;2023-04-03T09:25:15;24.70;1.00
20463;DHT22;10390;53.566;9.980;2023-04-03T09:27:41;24.70;1.00
20463;DHT22;10390;53.566;9.980;2023-04-03T09:30:13;24.70;1.00
20463;DHT22;10390;53.566;9.980;2023-04-03T09:32:40;24.70;1.00
20463;DHT22;10390;53.566;9.980;2023-04-03T09:35:27;24.70;1.00
20463;DHT22;10390;53.566;9.980;2023-04-03T09:37:59;24.70;1.00
20463;DHT22;10390;53.566;9.980;2023-04-03T09:42:57;24.70;1.00
20463;DHT22;10390;53.566;9.980;2023-04-03T09:45:26;24.70;1.00
20463;DHT22;10390;53.566;9.980;2023-04-03T09:51:00;24.70;1.00
20463;DHT22;10390;53.566;9.980;2023-04-03T09:56:03;24.80;1.00
20463;DHT22;10390;53.566;9.980;2023-04-03T09:58:39;24.80;1.00
20463;DHT22;10390;53.566;9.980;2023-04-03T10:01:30;24.80;1.00
20463;DHT22;10390;53.566;9.980;2023-04-03T10:04:06;24.80;1.00
20463;DHT22;10390;53.566;9.980;2023-04-03T10:06:35;24.80;1.00
20463;DHT22;10390;53.566;9.980;2023-04-03T10:09:05;24.80;1.00
20463;DHT22;10390;53.566;9.980;2023-04-03T10:11:31;24.80;1.00
20463;DHT22;10390;53.566;9.980;2023-04-03T10:13:58;24.80;1.00
20463;DHT22;10390;53.566;9.980;2023-04-03T10:20:27;24.80;1.00
20463;DHT22;10390;53.566;9.980;2023-04-03T10:23:21;24.80;1.00
20463;DHT22;10390;53.566;9.980;2023-04-03T10:28:57;24.80;1.00
20463;DHT22;10390;53.566;9.980;2023-04-03T10:31:51;24.90;1.00
20463;DHT22;10390;53.566;9.980;2023-04-03T10:34:25;24.90;1.00
20463;DHT22;10390;53.566;9.980;2023-04-03T10:37:35;24.90;1.00
20463;DHT22;10390;53.566;9.980;2023-04-03T10:42:53;24.90;1.00
20463;DHT22;10390;53.566;9.980;2023-04-03T10:45:29;24.90;1.00
20463;DHT22;10390;53.566;9.980;2023-04-03T10:48:35;24.90;1.00
20463;DHT22;10390;53.566;9.980;2023-04-03T10:53:49;24.90;1.00
20463;DHT22;10390;53.566;9.980;2023-04-03T11:04:44;24.90;1.00
20463;DHT22;10390;53.566;9.980;2023-04-03T11:07:18;24.90;1.00
20463;DHT22;10390;53.566;9.980;2023-04-03T11:09:50;24.90;1.00
20463;DHT22;10390;53.566;9.980;2023-04-03T11:14:59;24.90;1.00
20463;DHT22;10390;53.566;9.980;2023-04-03T11:17:33;24.90;1.00
20463;DHT22;10390;53.566;9.980;2023-04-03T11:22:51;24.90;1.00
20463;DHT22;10390;53.566;9.980;2023-04-03T11:25:22;24.90;1.00
20463;DHT22;10390;53.566;9.980;2023-04-03T11:27:59;24.90;1.00
20463;DHT22;10390;53.566;9.980;2023-04-03T11:35:34;24.90;1.00
20463;DHT22;10390;53.566;9.980;2023-04-03T11:38:02;25.00;1.00
20463;DHT22;10390;53.566;9.980;2023-04-03T11:40:35;25.00;1.00
20463;DHT22;10390;53.566;9.980;2023-04-03T11:43:06;25.00;1.00
20463;DHT22;10390;53.566;9.980;2023-04-03T11:45:49;25.00;1.00
20463;DHT22;10390;53.566;9.980;2023-04-03T11:50:46;25.00;1.00
20463;DHT22;10390;53.566;9.980;2023-04-03T11:58:20;24.90;1.00
20463;DHT22;10390;53.566;9.980;2023-04-03T12:00:56;24.90;1.00
20463;DHT22;10390;53.566;9.980;2023-04-03T12:16:30;24.90;1.00
20463;DHT22;10390;53.566;9.980;2023-04-03T12:19:03;24.90;1.00
20463;DHT22;10390;53.566;9.980;2023-04-03T12:24:24;24.90;1.00
20463;DHT22;10390;53.566;9.980;2023-04-03T12:48:48;24.80;1.00
20463;DHT22;10390;53.566;9.980;2023-04-03T12:51:19;24.90;1.00
20463;DHT22;10390;53.566;9.980;2023-04-03T12:53:46;24.80;1.00
20463;DHT22;10390;53.566;9.980;2023-04-03T12:56:29;24.80;1.00
20463;DHT22;10390;53.566;9.980;2023-04-03T12:59:19;24.80;1.00
20463;DHT22;10390;53.566;9.980;2023-04-03T13:01:57;24.80;1.00
20463;DHT22;10390;53.566;9.980;2023-04-03T13:04:23;24.80;1.00
20463;DHT22;10390;53.566;9.980;2023-04-03T13:06:49;24.80;1.00
20463;DHT22;10390;53.566;9.980;2023-04-03T13:09:23;24.80;1.00
20463;DHT22;10390;53.566;9.980;2023-04-03T13:11:54;24.70;1.00
20463;DHT22;10390;53.566;9.980;2023-04-03T13:14:24;24.70;1.00
20463;DHT22;10390;53.566;9.980;2023-04-03T13:19:34;24.70;1.00
20463;DHT22;10390;53.566;9.980;2023-04-03T13:22:15;24.70;1.00
20463;DHT22;10390;53.566;9.980;2023-04-03T13:24:51;24.70;1.00
20463;DHT22;10390;53.566;9.980;2023-04-03T13:27:17;24.70;1.00
20463;DHT22;10390;53.566;9.980;2023-04-03T13:29:43;24.70;1.00
20463;DHT22;10390;53.566;9.980;2023-04-03T13:32:22;24.70;1.00
20463;DHT22;10390;53.566;9.980;2023-04-03T13:34:48;24.60;1.00
20463;DHT22;10390;53.566;9.980;2023-04-03T13:37:32;24.60;1.00
20463;DHT22;10390;53.566;9.980;2023-04-03T13:40:09;24.70;1.00
20463;DHT22;10390;53.566;9.980;2023-04-03T13:42:38;24.60;1.00
20463;DHT22;10390;53.566;9.980;2023-04-03T13:45:24;24.60;1.00
20463;DHT22;10390;53.566;9.980;2023-04-03T13:48:06;24.60;1.00
20463;DHT22;10390;53.566;9.980;2023-04-03T13:50:33;24.60;1.00
20463;DHT22;10390;53.566;9.980;2023-04-03T13:53:12;24.50;1.00
20463;DHT22;10390;53.566;9.980;2023-04-03T13:55:57;24.50;1.00
20463;DHT22;10390;53.566;9.980;2023-04-03T13:58:28;24.50;1.00
20463;DHT22;10390;53.566;9.980;2023-04-03T14:01:40;24.50;1.00
20463;DHT22;10390;53.566;9.980;2023-04-03T14:03:53;24.40;1.00
20463;DHT22;10390;53.566;9.980;2023-04-03T14:06:19;24.40;1.00
20463;DHT22;10390;53.566;9.980;2023-04-03T14:08:45;24.40;1.00
20463;DHT22;10390;53.566;9.980;2023-04-03T14:11:20;24.30;1.00
20463;DHT22;10390;53.566;9.980;2023-04-03T14:13:47;24.30;1.00
20463;DHT22;10390;53.566;9.980;2023-04-03T14:16:20;24.30;1.00
20463;DHT22;10390;53.566;9.980;2023-04-03T14:18:50;24.30;1.00
20463;DHT22;10390;53.566;9.980;2023-04-03T14:21:17;24.30;1.00
20463;DHT22;10390;53.566;9.980;2023-04-03T14:23:44;24.30;1.00
20463;DHT22;10390;53.566;9.980;2023-04-03T14:26:16;24.30;1.00
20463;DHT22;10390;53.566;9.980;2023-04-03T14:28:44;24.30;1.00
20463;DHT22;10390;53.566;9.980;2023-04-03T14:31:11;24.30;1.00
20463;DHT22;10390;53.566;9.980;2023-04-03T14:33:39;24.30;1.00
20463;DHT22;10390;53.566;9.980;2023-04-03T14:36:12;24.30;1.00
20463;DHT22;10390;53.566;9.980;2023-04-03T14:38:38;24.30;1.00
20463;DHT22;10390;53.566;9.980;2023-04-03T14:41:04;24.30;1.00
20463;DHT22;10390;53.566;9.980;2023-04-03T14:43:30;24.30;1.00
20463;DHT22;10390;53.566;9.980;2023-04-03T14:45:55;24.30;1.00
20463;DHT22;10390;53.566;9.980;2023-04-03T14:48:25;24.30;1.00
20463;DHT22;10390;53.566;9.980;2023-04-03T14:50:53;24.30;1.00
20463;DHT22;10390;53.566;9.980;2023-04-03T14:53:19;24.30;1.00
20463;DHT22;10390;53.566;9.980;2023-04-03T14:55:48;24.30;1.00
20463;DHT22;10390;53.566;9.980;2023-04-03T14:58:19;24.30;1.00
20463;DHT22;10390;53.566;9.980;2023-04-03T15:00:46;24.30;1.00
20463;DHT22;10390;53.566;9.980;2023-04-03T15:03:17;24.30;1.00
20463;DHT22;10390;53.566;9.980;2023-04-03T15:05:45;24.30;1.00
20463;DHT22;10390;53.566;9.980;2023-04-03T15:08:23;24.30;1.00
20463;DHT22;10390;53.566;9.980;2023-04-03T15:10:50;24.30;1.00
20463;DHT22;10390;53.566;9.980;2023-04-03T15:13:19;24.30;1.00
20463;DHT22;10390;53.566;9.980;2023-04-03T15:15:45;24.30;1.00
20463;DHT22;10390;53.566;9.980;2023-04-03T15:18:17;24.20;1.00
20463;DHT22;10390;53.566;9.980;2023-04-03T15:20:44;24.30;1.00
20463;DHT22;10390;53.566;9.980;2023-04-03T15:23:12;24.20;1.00
20463;DHT22;10390;53.566;9.980;2023-04-03T15:25:38;24.20;1.00
20463;DHT22;10390;53.566;9.980;2023-04-03T15:28:05;24.20;1.00
20463;DHT22;10390;53.566;9.980;2023-04-03T15:30:31;24.20;1.00
20463;DHT22;10390;53.566;9.980;2023-04-03T15:32:57;24.20;1.00
20463;DHT22;10390;53.566;9.980;2023-04-03T15:35:22;24.20;1.00
20463;DHT22;10390;53.566;9.980;2023-04-03T15:37:48;24.20;1.00
20463;DHT22;10390;53.566;9.980;2023-04-03T15:40:14;24.30;1.00
20463;DHT22;10390;53.566;9.980;2023-04-03T15:42:40;24.30;1.00
20463;DHT22;10390;53.566;9.980;2023-04-03T15:45:06;24.30;1.00
20463;DHT22;10390;53.566;9.980;2023-04-03T15:47:32;24.30;1.00
20463;DHT22;10390;53.566;9.980;2023-04-03T15:49:58;24.20;1.00
20463;DHT22;10390;53.566;9.980;2023-04-03T15:52:23;24.20;1.00
20463;DHT22;10390;53.566;9.980;2023-04-03T15:54:49;24.20;1.00
20463;DHT22;10390;53.566;9.980;2023-04-03T15:57:15;24.10;1.00
20463;DHT22;10390;53.566;9.980;2023-04-03T15:59:40;24.10;1.00
20463;DHT22;10390;53.566;9.980;2023-04-03T16:02:08;24.00;1.00
20463;DHT22;10390;53.566;9.980;2023-04-03T16:04:35;24.00;1.00
20463;DHT22;10390;53.566;9.980;2023-04-03T16:07:04;24.00;1.00
20463;DHT22;10390;53.566;9.980;2023-04-03T16:09:32;23.90;1.00
20463;DHT22;10390;53.566;9.980;2023-04-03T16:11:58;23.90;1.00
20463;DHT22;10390;53.566;9.980;2023-04-03T16:14:24;23.90;1.00
20463;DHT22;10390;53.566;9.980;2023-04-03T16:16:50;23.90;1.00
20463;DHT22;10390;53.566;9.980;2023-04-03T16:19:15;23.90;1.00
20463;DHT22;10390;53.566;9.980;2023-04-03T16:21:41;23.90;1.00
20463;DHT22;10390;53.566;9.980;2023-04-03T16:24:07;23.90;1.00
20463;DHT22;10390;53.566;9.980;2023-04-03T16:26:32;24.00;1.00
20463;DHT22;10390;53.566;9.980;2023-04-03T16:28:58;24.00;1.00
20463;DHT22;10390;53.566;9.980;2023-04-03T16:31:25;24.00;1.00
20463;DHT22;10390;53.566;9.980;2023-04-03T16:33:51;24.00;1.00
20463;DHT22;10390;53.566;9.980;2023-04-03T16:36:17;24.00;1.00
20463;DHT22;10390;53.566;9.980;2023-04-03T16:38:43;24.00;1.00
20463;DHT22;10390;53.566;9.980;2023-04-03T16:41:08;24.00;1.00
20463;DHT22;10390;53.566;9.980;2023-04-03T16:43:34;24.00;1.00
20463;DHT22;10390;53.566;9.980;2023-04-03T16:46:01;24.10;1.00
20463;DHT22;10390;53.566;9.980;2023-04-03T16:48:28;24.10;1.00
20463;DHT22;10390;53.566;9.980;2023-04-03T16:50:53;24.10;1.00
20463;DHT22;10390;53.566;9.980;2023-04-03T16:53:20;24.10;1.00
20463;DHT22;10390;53.566;9.980;2023-04-03T16:55:49;24.10;1.00
20463;DHT22;10390;53.566;9.980;2023-04-03T16:58:15;24.20;1.00
20463;DHT22;10390;53.566;9.980;2023-04-03T17:00:41;24.20;1.00
20463;DHT22;10390;53.566;9.980;2023-04-03T17:03:06;24.20;1.00
20463;DHT22;10390;53.566;9.980;2023-04-03T17:05:32;24.20;1.00
20463;DHT22;10390;53.566;9.980;2023-04-03T17:07:58;24.20;1.00
20463;DHT22;10390;53.566;9.980;2023-04-03T17:10:24;24.20;1.00
20463;DHT22;10390;53.566;9.980;2023-04-03T17:12:50;24.30;1.00
20463;DHT22;10390;53.566;9.980;2023-04-03T17:15:15;24.20;1.00
20463;DHT22;10390;53.566;9.980;2023-04-03T17:17:41;24.30;1.00
20463;DHT22;10390;53.566;9.980;2023-04-03T17:20:07;24.30;1.00
20463;DHT22;10390;53.566;9.980;2023-04-03T17:22:34;24.30;1.00
20463;DHT22;10390;53.566;9.980;2023-04-03T17:25:00;24.30;1.00
20463;DHT22;10390;53.566;9.980;2023-04-03T17:27:26;24.30;1.00
20463;DHT22;10390;53.566;9.980;2023-04-03T17:29:51;24.40;1.00
20463;DHT22;10390;53.566;9.980;2023-04-03T17:32:17;24.40;1.00
20463;DHT22;10390;53.566;9.980;2023-04-03T17:34:45;24.40;1.00
20463;DHT22;10390;53.566;9.980;2023-04-03T17:37:14;24.40;1.00
20463;DHT22;10390;53.566;9.980;2023-04-03T17:39:39;24.40;1.00
20463;DHT22;10390;53.566;9.980;2023-04-03T17:42:05;24.40;1.00